createdAt,value
2019-05-25T00:00:23.438Z,0.00
2019-05-25T00:01:23.602Z,0.00
2019-05-25T00:02:23.381Z,0.00
2019-05-25T00:03:23.364Z,0.00
2019-05-25T00:04:23.350Z,0.00
2019-05-25T00:05:23.332Z,0.00
2019-05-25T00:06:23.329Z,0.00
2019-05-25T00:07:23.310Z,0.00
2019-05-25T00:08:23.289Z,0.00
2019-05-25T00:09:23.275Z,0.00
2019-05-25T00:10:23.257Z,0.00
2019-05-25T00:11:23.237Z,0.00
2019-05-25T00:12:23.231Z,0.00
2019-05-25T00:13:23.208Z,0.00
2019-05-25T00:14:23.194Z,0.00
2019-05-25T00:15:23.179Z,0.00
2019-05-25T00:16:23.162Z,0.00
2019-05-25T00:17:23.145Z,0.00
2019-05-25T00:18:23.128Z,0.00
2019-05-25T00:19:23.113Z,0.00
2019-05-25T00:20:23.097Z,0.00
2019-05-25T00:21:23.082Z,0.00
2019-05-25T00:22:23.066Z,0.00
2019-05-25T00:23:23.050Z,0.00
2019-05-25T00:24:23.035Z,0.00
2019-05-25T00:25:23.018Z,0.00
2019-05-25T00:26:23.004Z,0.00
2019-05-25T00:27:22.979Z,0.00
2019-05-25T00:28:22.971Z,0.00
2019-05-25T00:29:22.954Z,0.00
2019-05-25T00:30:22.940Z,0.00
2019-05-25T00:31:22.920Z,0.00
2019-05-25T00:32:22.911Z,0.00
2019-05-25T00:33:22.888Z,0.00
2019-05-25T00:34:22.875Z,0.00
2019-05-25T00:35:22.861Z,0.00
2019-05-25T00:36:22.844Z,0.00
2019-05-25T00:37:22.823Z,0.00
2019-05-25T00:38:22.938Z,0.00
2019-05-25T00:39:22.793Z,0.00
2019-05-25T00:40:22.971Z,0.00
2019-05-25T00:41:22.763Z,0.00
2019-05-25T00:42:22.744Z,0.00
2019-05-25T00:43:22.732Z,0.00
2019-05-25T00:44:22.711Z,0.00
2019-05-25T00:45:22.694Z,0.00
2019-05-25T00:46:22.682Z,0.00
2019-05-25T00:47:22.663Z,0.00
2019-05-25T00:48:22.656Z,0.00
2019-05-25T00:49:22.853Z,0.00
2019-05-25T00:50:22.804Z,0.00
2019-05-25T00:51:22.599Z,0.00
2019-05-25T00:52:22.586Z,0.00
2019-05-25T00:53:22.567Z,0.00
2019-05-25T00:54:28.095Z,0.00
2019-05-25T00:55:22.532Z,0.00
2019-05-25T00:56:22.516Z,0.00
2019-05-25T00:57:22.499Z,0.00
2019-05-25T00:58:22.484Z,0.00
2019-05-25T00:59:22.466Z,0.00
2019-05-25T01:00:22.449Z,0.00
2019-05-25T01:01:24.458Z,0.00
2019-05-25T01:02:22.418Z,0.00
2019-05-25T01:03:22.404Z,0.00
2019-05-25T01:04:22.387Z,0.00
2019-05-25T01:05:22.388Z,0.00
2019-05-25T01:06:22.353Z,0.00
2019-05-25T01:07:22.343Z,0.00
2019-05-25T01:08:22.320Z,0.00
2019-05-25T01:09:22.303Z,0.00
2019-05-25T01:10:22.289Z,0.00
2019-05-25T01:11:22.274Z,0.00
2019-05-25T01:12:22.253Z,0.00
2019-05-25T01:13:22.239Z,0.00
2019-05-25T01:14:22.225Z,0.00
2019-05-25T01:15:22.198Z,0.00
2019-05-25T01:16:22.189Z,0.00
2019-05-25T01:17:22.172Z,0.00
2019-05-25T01:18:22.166Z,0.00
2019-05-25T01:19:22.140Z,0.00
2019-05-25T01:20:22.123Z,0.00
2019-05-25T01:21:22.104Z,0.00
2019-05-25T01:22:22.090Z,0.00
2019-05-25T01:23:22.076Z,0.00
2019-05-25T01:24:22.096Z,0.00
2019-05-25T01:25:22.042Z,0.00
2019-05-25T01:26:22.023Z,0.00
2019-05-25T01:27:22.009Z,0.00
2019-05-25T01:28:21.989Z,0.00
2019-05-25T01:29:21.974Z,0.00
2019-05-25T01:30:21.960Z,0.00
2019-05-25T01:31:21.943Z,0.00
2019-05-25T01:32:21.923Z,0.00
2019-05-25T01:33:21.906Z,0.00
2019-05-25T01:34:21.903Z,0.00
2019-05-25T01:35:21.880Z,0.00
2019-05-25T01:36:21.859Z,0.00
2019-05-25T01:37:21.843Z,0.00
2019-05-25T01:38:21.830Z,0.00
2019-05-25T01:39:21.809Z,0.00
2019-05-25T01:40:21.789Z,0.00
2019-05-25T01:41:21.778Z,0.00
2019-05-25T01:42:21.760Z,0.00
2019-05-25T01:43:21.743Z,0.00
2019-05-25T01:44:21.725Z,0.00
2019-05-25T01:45:21.705Z,0.00
2019-05-25T01:46:21.690Z,0.00
2019-05-25T01:47:21.674Z,0.00
2019-05-25T01:48:28.398Z,0.00
2019-05-25T01:49:21.653Z,0.00
2019-05-25T01:50:21.652Z,0.00
2019-05-25T01:51:21.610Z,0.00
2019-05-25T01:52:21.591Z,0.00
2019-05-25T01:53:21.573Z,0.00
2019-05-25T01:54:21.558Z,0.00
2019-05-25T01:55:21.540Z,0.00
2019-05-25T01:56:21.523Z,0.00
2019-05-25T01:57:21.708Z,0.00
2019-05-25T01:58:21.680Z,0.00
2019-05-25T01:59:21.660Z,0.00
2019-05-25T02:00:21.665Z,0.00
2019-05-25T02:01:21.447Z,0.00
2019-05-25T02:02:21.422Z,0.00
2019-05-25T02:03:21.406Z,0.00
2019-05-25T02:04:21.390Z,0.00
2019-05-25T02:05:21.374Z,0.00
2019-05-25T02:06:21.359Z,0.00
2019-05-25T02:07:21.338Z,0.00
2019-05-25T02:08:21.321Z,0.00
2019-05-25T02:09:21.309Z,0.00
2019-05-25T02:10:21.290Z,0.00
2019-05-25T02:11:21.273Z,0.00
2019-05-25T02:12:21.257Z,0.00
2019-05-25T02:13:21.256Z,0.00
2019-05-25T02:14:21.226Z,0.00
2019-05-25T02:15:21.211Z,0.00
2019-05-25T02:16:21.189Z,0.00
2019-05-25T02:17:21.172Z,0.00
2019-05-25T02:18:21.177Z,0.00
2019-05-25T02:19:21.137Z,0.00
2019-05-25T02:20:21.123Z,0.00
2019-05-25T02:21:21.106Z,0.00
2019-05-25T02:22:21.087Z,0.00
2019-05-25T02:23:21.075Z,0.00
2019-05-25T02:24:21.054Z,0.00
2019-05-25T02:25:21.042Z,0.00
2019-05-25T02:26:21.032Z,0.00
2019-05-25T02:27:21.003Z,0.00
2019-05-25T02:28:20.984Z,0.00
2019-05-25T02:29:20.969Z,0.00
2019-05-25T02:30:20.952Z,0.00
2019-05-25T02:31:20.939Z,0.00
2019-05-25T02:32:20.921Z,0.00
2019-05-25T02:33:20.902Z,0.00
2019-05-25T02:34:20.883Z,0.00
2019-05-25T02:35:20.872Z,0.00
2019-05-25T02:36:21.033Z,0.00
2019-05-25T02:37:20.839Z,0.00
2019-05-25T02:38:20.818Z,0.00
2019-05-25T02:39:20.802Z,0.00
2019-05-25T02:40:20.785Z,0.00
2019-05-25T02:41:20.788Z,0.00
2019-05-25T02:42:20.755Z,0.00
2019-05-25T02:43:20.731Z,0.00
2019-05-25T02:44:20.716Z,0.00
2019-05-25T02:45:20.877Z,0.00
2019-05-25T02:46:20.844Z,0.00
2019-05-25T02:47:20.853Z,0.00
2019-05-25T02:48:20.839Z,0.00
2019-05-25T02:49:20.630Z,0.00
2019-05-25T02:50:20.613Z,0.00
2019-05-25T02:51:20.601Z,0.00
2019-05-25T02:52:20.578Z,0.00
2019-05-25T02:53:20.564Z,0.00
2019-05-25T02:54:20.548Z,0.00
2019-05-25T02:55:33.947Z,4.00
2019-05-25T02:56:20.510Z,4.00
2019-05-25T02:57:20.488Z,4.00
2019-05-25T02:58:20.477Z,4.00
2019-05-25T02:59:20.641Z,0.00
2019-05-25T03:00:20.541Z,4.00
2019-05-25T03:01:20.426Z,4.00
2019-05-25T03:02:20.409Z,8.00
2019-05-25T03:03:20.393Z,4.00
2019-05-25T03:04:20.377Z,8.00
2019-05-25T03:05:20.358Z,8.00
2019-05-25T03:06:20.339Z,12.00
2019-05-25T03:07:20.323Z,12.00
2019-05-25T03:08:20.310Z,12.00
2019-05-25T03:09:20.474Z,16.00
2019-05-25T03:10:20.324Z,16.00
2019-05-25T03:11:20.367Z,24.00
2019-05-25T03:12:20.424Z,24.00
2019-05-25T03:13:20.222Z,28.00
2019-05-25T03:14:20.207Z,32.00
2019-05-25T03:15:20.189Z,36.00
2019-05-25T03:16:20.181Z,40.00
2019-05-25T03:17:20.152Z,48.00
2019-05-25T03:18:20.136Z,52.00
2019-05-25T03:19:20.119Z,56.00
2019-05-25T03:20:20.103Z,60.00
2019-05-25T03:21:20.099Z,68.00
2019-05-25T03:22:20.071Z,76.00
2019-05-25T03:23:20.052Z,84.00
2019-05-25T03:24:20.240Z,88.00
2019-05-25T03:25:20.203Z,96.00
2019-05-25T03:26:20.002Z,104.00
2019-05-25T03:27:19.983Z,116.00
2019-05-25T03:28:19.969Z,124.00
2019-05-25T03:29:19.947Z,136.00
2019-05-25T03:30:19.932Z,148.00
2019-05-25T03:31:19.915Z,160.00
2019-05-25T03:32:19.893Z,172.00
2019-05-25T03:33:19.883Z,180.00
2019-05-25T03:34:19.869Z,196.00
2019-05-25T03:35:19.845Z,208.00
2019-05-25T03:36:19.830Z,224.00
2019-05-25T03:37:19.812Z,236.00
2019-05-25T03:38:19.824Z,252.00
2019-05-25T03:39:19.778Z,268.00
2019-05-25T03:40:19.758Z,288.00
2019-05-25T03:41:19.746Z,304.00
2019-05-25T03:42:19.727Z,324.00
2019-05-25T03:43:19.709Z,348.00
2019-05-25T03:44:19.692Z,376.00
2019-05-25T03:45:19.678Z,408.00
2019-05-25T03:46:19.659Z,436.00
2019-05-25T03:47:19.660Z,456.00
2019-05-25T03:48:19.624Z,476.00
2019-05-25T03:49:19.605Z,492.00
2019-05-25T03:50:19.591Z,508.00
2019-05-25T03:51:19.573Z,524.00
2019-05-25T03:52:19.555Z,548.00
2019-05-25T03:53:19.537Z,572.00
2019-05-25T03:54:19.524Z,596.00
2019-05-25T03:55:19.505Z,624.00
2019-05-25T03:56:19.494Z,656.00
2019-05-25T03:57:19.475Z,696.00
2019-05-25T03:58:19.453Z,728.00
2019-05-25T03:59:19.437Z,768.00
2019-05-25T04:00:19.417Z,804.00
2019-05-25T04:01:19.405Z,848.00
2019-05-25T04:02:19.383Z,892.00
2019-05-25T04:03:19.368Z,932.00
2019-05-25T04:04:19.352Z,984.00
2019-05-25T04:05:19.335Z,1032.00
2019-05-25T04:06:19.317Z,1092.00
2019-05-25T04:07:19.307Z,1156.00
2019-05-25T04:08:19.287Z,1220.00
2019-05-25T04:09:19.265Z,1272.00
2019-05-25T04:10:19.247Z,1332.00
2019-05-25T04:11:19.233Z,1384.00
2019-05-25T04:12:19.213Z,1424.00
2019-05-25T04:13:19.423Z,1464.00
2019-05-25T04:14:19.368Z,1496.00
2019-05-25T04:15:19.168Z,1508.00
2019-05-25T04:16:19.309Z,1536.00
2019-05-25T04:17:19.130Z,1564.00
2019-05-25T04:18:19.112Z,1596.00
2019-05-25T04:19:19.098Z,1648.00
2019-05-25T04:20:19.079Z,1724.00
2019-05-25T04:21:19.061Z,1808.00
2019-05-25T04:22:19.048Z,1908.00
2019-05-25T04:23:19.031Z,2008.00
2019-05-25T04:24:19.010Z,2092.00
2019-05-25T04:25:18.996Z,2176.00
2019-05-25T04:26:22.410Z,2256.00
2019-05-25T04:27:19.015Z,2328.00
2019-05-25T04:28:18.944Z,2400.00
2019-05-25T04:29:18.925Z,2452.00
2019-05-25T04:30:18.909Z,2496.00
2019-05-25T04:31:18.899Z,2544.00
2019-05-25T04:32:18.874Z,2596.00
2019-05-25T04:33:18.859Z,2644.00
2019-05-25T04:34:18.843Z,2684.00
2019-05-25T04:35:18.830Z,2720.00
2019-05-25T04:36:18.813Z,2748.00
2019-05-25T04:37:18.809Z,2772.00
2019-05-25T04:38:18.775Z,2796.00
2019-05-25T04:39:18.762Z,2836.00
2019-05-25T04:40:18.741Z,2904.00
2019-05-25T04:41:18.910Z,2996.00
2019-05-25T04:42:18.910Z,3112.00
2019-05-25T04:43:18.874Z,3236.00
2019-05-25T04:44:18.863Z,3380.00
2019-05-25T04:45:18.847Z,3560.00
2019-05-25T04:46:21.577Z,3784.00
2019-05-25T04:47:27.036Z,4044.00
2019-05-25T04:48:18.714Z,4296.00
2019-05-25T04:49:18.589Z,4472.00
2019-05-25T04:50:18.583Z,4512.00
2019-05-25T04:51:18.559Z,4668.00
2019-05-25T04:52:18.539Z,5372.00
2019-05-25T04:53:18.523Z,5368.00
2019-05-25T04:54:18.507Z,4568.00
2019-05-25T04:55:18.496Z,4228.00
2019-05-25T04:56:18.489Z,3596.00
2019-05-25T04:57:18.458Z,3592.00
2019-05-25T04:58:18.459Z,3664.00
2019-05-25T04:59:18.430Z,3904.00
2019-05-25T05:00:18.410Z,4016.00
2019-05-25T05:01:22.262Z,4148.00
2019-05-25T05:02:18.378Z,4440.00
2019-05-25T05:03:18.424Z,4856.00
2019-05-25T05:04:18.344Z,5364.00
2019-05-25T05:05:18.330Z,6148.00
2019-05-25T05:06:18.317Z,6708.00
2019-05-25T05:07:18.295Z,7796.00
2019-05-25T05:08:18.281Z,9252.00
2019-05-25T05:09:18.268Z,9564.00
2019-05-25T05:10:18.250Z,11436.00
2019-05-25T05:11:18.253Z,12780.00
2019-05-25T05:12:18.397Z,13836.00
2019-05-25T05:13:18.203Z,14908.00
2019-05-25T05:14:18.201Z,15616.00
2019-05-25T05:15:18.174Z,16000.00
2019-05-25T05:16:18.188Z,16384.00
2019-05-25T05:17:18.146Z,16832.00
2019-05-25T05:18:18.129Z,17280.00
2019-05-25T05:19:18.120Z,17760.00
2019-05-25T05:20:18.098Z,18176.00
2019-05-25T05:21:18.087Z,18560.00
2019-05-25T05:22:18.076Z,19072.00
2019-05-25T05:23:18.061Z,19520.00
2019-05-25T05:24:18.044Z,19936.00
2019-05-25T05:25:18.038Z,20480.00
2019-05-25T05:26:18.019Z,21184.00
2019-05-25T05:27:18.000Z,21856.00
2019-05-25T05:28:17.995Z,22720.00
2019-05-25T05:29:17.982Z,24448.00
2019-05-25T05:30:17.971Z,25472.00
2019-05-25T05:31:23.542Z,24864.00
2019-05-25T05:32:27.207Z,25824.00
2019-05-25T05:33:17.933Z,28000.00
2019-05-25T05:34:17.924Z,36480.00
2019-05-25T05:35:17.914Z,42688.00
2019-05-25T05:36:17.901Z,43520.00
2019-05-25T05:37:17.892Z,42464.00
2019-05-25T05:38:17.880Z,43328.00
2019-05-25T05:39:17.870Z,41440.00
2019-05-25T05:40:17.882Z,43104.00
2019-05-25T05:41:17.850Z,46560.00
2019-05-25T05:42:17.838Z,45248.00
2019-05-25T05:43:17.900Z,45600.00
2019-05-25T05:44:17.996Z,45568.00
2019-05-25T05:45:17.823Z,46976.00
2019-05-25T05:46:17.804Z,47904.00
2019-05-25T05:47:17.792Z,49472.00
2019-05-25T05:48:17.782Z,47872.00
2019-05-25T05:49:17.773Z,48032.00
2019-05-25T05:50:17.760Z,51168.00
2019-05-25T05:51:17.754Z,53984.00
2019-05-25T05:52:17.747Z,56576.00
2019-05-25T05:53:17.740Z,56576.00
2019-05-25T05:54:17.729Z,55200.00
2019-05-25T05:55:17.727Z,55712.00
2019-05-25T05:56:17.714Z,56480.00
2019-05-25T05:57:17.707Z,56896.00
2019-05-25T05:58:17.698Z,58464.00
2019-05-25T05:59:17.718Z,57984.00
2019-05-25T06:00:17.684Z,57280.00
2019-05-25T06:01:17.674Z,57824.00
2019-05-25T06:02:17.667Z,58464.00
2019-05-25T06:03:17.661Z,59936.00
2019-05-25T06:04:17.651Z,61152.00
2019-05-25T06:05:17.643Z,60416.00
2019-05-25T06:06:17.636Z,60448.00
2019-05-25T06:07:17.628Z,55424.00
2019-05-25T06:08:17.618Z,54368.00
2019-05-25T06:09:17.611Z,57376.00
2019-05-25T06:10:17.611Z,54560.00
2019-05-25T06:11:17.599Z,53792.00
2019-05-25T06:12:17.593Z,55392.00
2019-05-25T06:13:17.585Z,51776.00
2019-05-25T06:14:17.579Z,47232.00
2019-05-25T06:15:17.570Z,58656.00
2019-05-25T06:16:17.565Z,40640.00
2019-05-25T06:17:17.753Z,38752.00
2019-05-25T06:18:17.742Z,35136.00
2019-05-25T06:19:17.732Z,30752.00
2019-05-25T06:20:17.554Z,31616.00
2019-05-25T06:21:17.529Z,34880.00
2019-05-25T06:22:17.522Z,31104.00
2019-05-25T06:23:17.515Z,32960.00
2019-05-25T06:24:17.507Z,38720.00
2019-05-25T06:25:17.501Z,40736.00
2019-05-25T06:26:17.492Z,55968.00
2019-05-25T06:27:26.879Z,42688.00
2019-05-25T06:28:20.143Z,45568.00
2019-05-25T06:29:17.469Z,47968.00
2019-05-25T06:30:17.465Z,44256.00
2019-05-25T06:31:17.455Z,42304.00
2019-05-25T06:32:17.447Z,40320.00
2019-05-25T06:33:17.441Z,40608.00
2019-05-25T06:34:17.435Z,48896.00
2019-05-25T06:35:17.425Z,48096.00
2019-05-25T06:36:17.420Z,46592.00
2019-05-25T06:37:17.410Z,50432.00
2019-05-25T06:38:17.408Z,52736.00
2019-05-25T06:39:17.397Z,53312.00
2019-05-25T06:40:17.392Z,57664.00
2019-05-25T06:41:17.392Z,59520.00
2019-05-25T06:42:17.377Z,59360.00
2019-05-25T06:43:17.370Z,58240.00
2019-05-25T06:44:17.363Z,59264.00
2019-05-25T06:45:17.358Z,60576.00
2019-05-25T06:46:17.355Z,58304.00
2019-05-25T06:47:17.344Z,59104.00
2019-05-25T06:48:17.337Z,61600.00
2019-05-25T06:49:17.334Z,60352.00
2019-05-25T06:50:17.326Z,60128.00
2019-05-25T06:51:17.325Z,62144.00
2019-05-25T06:52:17.318Z,61088.00
2019-05-25T06:53:17.312Z,61600.00
2019-05-25T06:54:17.312Z,59424.00
2019-05-25T06:55:17.303Z,53696.00
2019-05-25T06:56:17.297Z,49888.00
2019-05-25T06:57:17.292Z,44480.00
2019-05-25T06:58:17.293Z,42816.00
2019-05-25T06:59:17.349Z,33888.00
2019-05-25T07:00:17.290Z,32064.00
2019-05-25T07:01:17.276Z,29824.00
2019-05-25T07:02:17.269Z,30784.00
2019-05-25T07:03:17.264Z,29632.00
2019-05-25T07:04:17.258Z,29504.00
2019-05-25T07:05:17.256Z,28992.00
2019-05-25T07:06:17.254Z,28160.00
2019-05-25T07:07:17.240Z,28480.00
2019-05-25T07:08:17.235Z,30688.00
2019-05-25T07:09:17.230Z,28992.00
2019-05-25T07:10:17.230Z,35168.00
2019-05-25T07:11:17.220Z,35936.00
2019-05-25T07:12:17.210Z,31584.00
2019-05-25T07:13:17.203Z,32128.00
2019-05-25T07:14:17.202Z,35584.00
2019-05-25T07:15:17.209Z,58784.00
2019-05-25T07:16:17.186Z,39552.00
2019-05-25T07:17:17.198Z,44576.00
2019-05-25T07:18:17.172Z,46848.00
2019-05-25T07:19:17.167Z,50528.00
2019-05-25T07:20:17.350Z,57248.00
2019-05-25T07:21:17.154Z,61120.00
2019-05-25T07:22:17.147Z,62016.00
2019-05-25T07:23:17.142Z,63872.00
2019-05-25T07:24:17.136Z,74976.00
2019-05-25T07:25:20.081Z,74016.00
2019-05-25T07:26:17.126Z,70752.00
2019-05-25T07:27:17.123Z,68000.00
2019-05-25T07:28:17.116Z,68192.00
2019-05-25T07:29:17.218Z,66496.00
2019-05-25T07:30:17.273Z,69760.00
2019-05-25T07:31:17.103Z,79680.00
2019-05-25T07:32:17.098Z,79520.00
2019-05-25T07:33:17.094Z,77280.00
2019-05-25T07:34:17.090Z,79872.00
2019-05-25T07:35:17.087Z,80256.00
2019-05-25T07:36:17.083Z,80608.00
2019-05-25T07:37:17.086Z,84096.00
2019-05-25T07:38:17.075Z,86176.00
2019-05-25T07:39:17.071Z,86528.00
2019-05-25T07:40:17.071Z,88160.00
2019-05-25T07:41:17.067Z,88672.00
2019-05-25T07:42:19.874Z,89312.00
2019-05-25T07:43:17.064Z,76736.00
2019-05-25T07:44:17.058Z,61408.00
2019-05-25T07:45:17.058Z,56768.00
2019-05-25T07:46:17.366Z,53952.00
2019-05-25T07:47:17.057Z,67200.00
2019-05-25T07:48:17.053Z,80064.00
2019-05-25T07:49:17.047Z,67584.00
2019-05-25T07:50:17.049Z,61184.00
2019-05-25T07:51:17.045Z,55136.00
2019-05-25T07:52:17.043Z,59360.00
2019-05-25T07:53:17.039Z,74528.00
2019-05-25T07:54:17.048Z,70240.00
2019-05-25T07:55:17.034Z,61888.00
2019-05-25T07:56:17.039Z,77888.00
2019-05-25T07:57:17.034Z,87232.00
2019-05-25T07:58:18.520Z,87008.00
2019-05-25T07:59:17.025Z,87296.00
2019-05-25T08:00:17.024Z,86112.00
2019-05-25T08:01:17.021Z,84544.00
2019-05-25T08:02:17.018Z,66208.00
2019-05-25T08:03:17.015Z,60192.00
2019-05-25T08:04:17.013Z,67008.00
2019-05-25T08:05:17.013Z,80512.00
2019-05-25T08:06:17.010Z,84800.00
2019-05-25T08:07:17.007Z,89152.00
2019-05-25T08:08:17.005Z,63776.00
2019-05-25T08:09:17.043Z,86176.00
2019-05-25T08:10:17.001Z,72512.00
2019-05-25T08:11:17.003Z,54272.00
2019-05-25T08:12:17.001Z,46944.00
2019-05-25T08:13:17.000Z,43648.00
2019-05-25T08:14:16.992Z,47136.00
2019-05-25T08:15:16.995Z,49408.00
2019-05-25T08:16:16.990Z,47488.00
2019-05-25T08:17:16.992Z,48224.00
2019-05-25T08:18:17.009Z,49504.00
2019-05-25T08:19:16.987Z,48416.00
2019-05-25T08:20:16.985Z,54624.00
2019-05-25T08:21:16.982Z,65344.00
2019-05-25T08:22:16.983Z,57216.00
2019-05-25T08:23:16.983Z,76608.00
2019-05-25T08:24:16.981Z,82912.00
2019-05-25T08:25:16.981Z,85504.00
2019-05-25T08:26:17.179Z,77888.00
2019-05-25T08:27:16.988Z,69312.00
2019-05-25T08:28:31.777Z,58624.00
2019-05-25T08:29:16.981Z,51520.00
2019-05-25T08:30:16.985Z,57984.00
2019-05-25T08:31:16.982Z,66784.00
2019-05-25T08:32:16.986Z,67296.00
2019-05-25T08:33:16.984Z,54880.00
2019-05-25T08:34:16.985Z,54816.00
2019-05-25T08:35:16.981Z,58240.00
2019-05-25T08:36:16.983Z,60544.00
2019-05-25T08:37:16.984Z,62848.00
2019-05-25T08:38:16.984Z,69280.00
2019-05-25T08:39:16.985Z,63264.00
2019-05-25T08:40:16.989Z,72512.00
2019-05-25T08:41:17.042Z,79680.00
2019-05-25T08:42:16.990Z,78048.00
2019-05-25T08:43:16.987Z,52384.00
2019-05-25T08:44:16.990Z,42912.00
2019-05-25T08:45:16.987Z,47552.00
2019-05-25T08:46:16.990Z,48608.00
2019-05-25T08:47:16.998Z,49472.00
2019-05-25T08:48:16.992Z,51168.00
2019-05-25T08:49:16.988Z,59296.00
2019-05-25T08:50:16.990Z,57984.00
2019-05-25T08:51:16.990Z,72128.00
2019-05-25T08:52:16.989Z,78496.00
2019-05-25T08:53:16.989Z,84800.00
2019-05-25T08:54:16.990Z,94016.00
2019-05-25T08:55:16.999Z,100480.00
2019-05-25T08:56:17.030Z,104640.00
2019-05-25T08:57:18.709Z,110272.00
2019-05-25T08:58:17.001Z,108064.00
2019-05-25T08:59:17.001Z,118848.00
2019-05-25T09:00:16.999Z,114176.00
2019-05-25T09:01:17.000Z,111296.00
2019-05-25T09:02:17.005Z,114080.00
2019-05-25T09:03:17.021Z,110752.00
2019-05-25T09:04:17.010Z,108576.00
2019-05-25T09:05:17.097Z,110624.00
2019-05-25T09:06:17.016Z,107584.00
2019-05-25T09:07:17.021Z,108384.00
2019-05-25T09:08:17.022Z,106976.00
2019-05-25T09:09:17.027Z,104160.00
2019-05-25T09:10:17.053Z,103360.00
2019-05-25T09:11:17.037Z,96832.00
2019-05-25T09:12:17.041Z,95936.00
2019-05-25T09:13:17.044Z,96384.00
2019-05-25T09:14:17.046Z,98176.00
2019-05-25T09:15:17.311Z,95392.00
2019-05-25T09:16:17.059Z,95360.00
2019-05-25T09:17:17.074Z,93472.00
2019-05-25T09:18:17.068Z,92480.00
2019-05-25T09:19:17.067Z,92288.00
2019-05-25T09:20:17.071Z,94048.00
2019-05-25T09:21:17.074Z,88992.00
2019-05-25T09:22:17.076Z,83296.00
2019-05-25T09:23:17.080Z,74784.00
2019-05-25T09:24:17.090Z,66848.00
2019-05-25T09:25:17.150Z,56128.00
2019-05-25T09:26:17.093Z,49152.00
2019-05-25T09:27:17.096Z,48064.00
2019-05-25T09:28:17.101Z,47872.00
2019-05-25T09:29:17.104Z,47872.00
2019-05-25T09:30:17.109Z,46944.00
2019-05-25T09:31:17.196Z,46144.00
2019-05-25T09:32:17.117Z,46112.00
2019-05-25T09:33:17.120Z,45408.00
2019-05-25T09:34:17.126Z,44448.00
2019-05-25T09:35:17.152Z,47936.00
2019-05-25T09:36:17.133Z,49056.00
2019-05-25T09:37:17.136Z,48992.00
2019-05-25T09:38:17.328Z,48704.00
2019-05-25T09:39:17.145Z,41664.00
2019-05-25T09:40:17.369Z,33504.00
2019-05-25T09:41:17.333Z,40096.00
2019-05-25T09:42:17.345Z,43296.00
2019-05-25T09:43:17.351Z,44288.00
2019-05-25T09:44:17.166Z,43424.00
2019-05-25T09:45:17.167Z,46560.00
2019-05-25T09:46:17.168Z,44864.00
2019-05-25T09:47:17.174Z,47968.00
2019-05-25T09:48:17.176Z,45728.00
2019-05-25T09:49:17.183Z,47904.00
2019-05-25T09:50:17.191Z,49120.00
2019-05-25T09:51:17.185Z,50016.00
2019-05-25T09:52:17.194Z,49824.00
2019-05-25T09:53:17.194Z,50080.00
2019-05-25T09:54:17.201Z,48192.00
2019-05-25T09:55:17.211Z,47552.00
2019-05-25T09:56:17.225Z,41920.00
2019-05-25T09:57:17.212Z,41728.00
2019-05-25T09:58:17.216Z,43040.00
2019-05-25T09:59:20.096Z,41600.00
2019-05-25T10:00:17.318Z,40800.00
2019-05-25T10:01:17.231Z,40416.00
2019-05-25T10:02:17.289Z,40416.00
2019-05-25T10:03:17.242Z,40160.00
2019-05-25T10:04:17.242Z,40256.00
2019-05-25T10:05:17.247Z,40864.00
2019-05-25T10:06:17.254Z,37216.00
2019-05-25T10:07:17.259Z,39328.00
2019-05-25T10:08:17.262Z,40832.00
2019-05-25T10:09:17.272Z,37920.00
2019-05-25T10:10:17.261Z,33088.00
2019-05-25T10:11:17.274Z,35904.00
2019-05-25T10:12:17.281Z,37440.00
2019-05-25T10:13:17.283Z,40064.00
2019-05-25T10:14:17.469Z,44352.00
2019-05-25T10:15:17.291Z,43584.00
2019-05-25T10:16:17.487Z,42816.00
2019-05-25T10:17:17.291Z,43360.00
2019-05-25T10:18:17.301Z,39904.00
2019-05-25T10:19:17.307Z,39872.00
2019-05-25T10:20:17.306Z,36992.00
2019-05-25T10:21:17.315Z,33920.00
2019-05-25T10:22:17.313Z,41024.00
2019-05-25T10:23:17.317Z,40992.00
2019-05-25T10:24:17.330Z,39680.00
2019-05-25T10:25:17.325Z,38848.00
2019-05-25T10:26:17.327Z,38400.00
2019-05-25T10:27:17.331Z,38336.00
2019-05-25T10:28:17.336Z,38240.00
2019-05-25T10:29:17.339Z,37632.00
2019-05-25T10:30:17.347Z,37056.00
2019-05-25T10:31:17.353Z,37056.00
2019-05-25T10:32:17.348Z,36928.00
2019-05-25T10:33:17.353Z,36768.00
2019-05-25T10:34:17.355Z,36576.00
2019-05-25T10:35:17.553Z,36448.00
2019-05-25T10:36:17.557Z,36256.00
2019-05-25T10:37:17.554Z,35616.00
2019-05-25T10:38:17.555Z,35200.00
2019-05-25T10:39:17.371Z,34656.00
2019-05-25T10:40:17.373Z,34016.00
2019-05-25T10:41:17.377Z,33696.00
2019-05-25T10:42:17.380Z,34336.00
2019-05-25T10:43:17.380Z,35200.00
2019-05-25T10:44:17.383Z,35712.00
2019-05-25T10:45:17.409Z,35712.00
2019-05-25T10:46:17.392Z,35328.00
2019-05-25T10:47:17.394Z,35040.00
2019-05-25T10:48:17.395Z,35104.00
2019-05-25T10:49:17.400Z,34976.00
2019-05-25T10:50:17.399Z,35168.00
2019-05-25T10:51:17.406Z,35584.00
2019-05-25T10:52:17.414Z,36032.00
2019-05-25T10:53:17.411Z,36288.00
2019-05-25T10:54:17.413Z,35872.00
2019-05-25T10:55:17.416Z,35168.00
2019-05-25T10:56:17.423Z,34848.00
2019-05-25T10:57:17.423Z,35104.00
2019-05-25T10:58:17.427Z,35584.00
2019-05-25T10:59:17.429Z,34624.00
2019-05-25T11:00:17.431Z,34400.00
2019-05-25T11:01:17.437Z,34016.00
2019-05-25T11:02:17.443Z,33888.00
2019-05-25T11:03:17.445Z,33984.00
2019-05-25T11:04:17.448Z,33888.00
2019-05-25T11:05:17.455Z,33440.00
2019-05-25T11:06:17.518Z,32768.00
2019-05-25T11:07:17.458Z,32576.00
2019-05-25T11:08:17.459Z,32640.00
2019-05-25T11:09:17.463Z,31264.00
2019-05-25T11:10:17.468Z,33184.00
2019-05-25T11:11:17.472Z,33952.00
2019-05-25T11:12:17.472Z,34208.00
2019-05-25T11:13:17.478Z,34240.00
2019-05-25T11:14:17.485Z,29312.00
2019-05-25T11:15:17.482Z,20352.00
2019-05-25T11:16:17.483Z,18808.00
2019-05-25T11:17:17.516Z,17888.00
2019-05-25T11:18:17.494Z,18132.00
2019-05-25T11:19:17.494Z,19152.00
2019-05-25T11:20:17.512Z,34560.00
2019-05-25T11:21:17.496Z,34400.00
2019-05-25T11:22:17.505Z,34176.00
2019-05-25T11:23:17.504Z,33632.00
2019-05-25T11:24:17.633Z,34272.00
2019-05-25T11:25:17.693Z,33408.00
2019-05-25T11:26:17.692Z,32416.00
2019-05-25T11:27:17.517Z,30944.00
2019-05-25T11:28:17.642Z,30016.00
2019-05-25T11:29:17.509Z,30624.00
2019-05-25T11:30:17.509Z,30208.00
2019-05-25T11:31:17.506Z,29504.00
2019-05-25T11:32:17.507Z,29472.00
2019-05-25T11:33:17.666Z,29312.00
2019-05-25T11:34:17.706Z,28992.00
2019-05-25T11:35:17.511Z,29184.00
2019-05-25T11:36:17.511Z,28928.00
2019-05-25T11:37:17.515Z,29184.00
2019-05-25T11:38:17.513Z,28416.00
2019-05-25T11:39:17.515Z,27744.00
2019-05-25T11:40:17.521Z,27552.00
2019-05-25T11:41:17.512Z,27872.00
2019-05-25T11:42:17.521Z,28032.00
2019-05-25T11:43:17.522Z,28032.00
2019-05-25T11:44:17.523Z,28416.00
2019-05-25T11:45:17.711Z,28928.00
2019-05-25T11:46:17.707Z,29184.00
2019-05-25T11:47:17.718Z,29280.00
2019-05-25T11:48:17.718Z,29088.00
2019-05-25T11:49:22.418Z,29728.00
2019-05-25T11:50:17.534Z,29888.00
2019-05-25T11:51:17.724Z,29440.00
2019-05-25T11:52:17.536Z,30240.00
2019-05-25T11:53:17.537Z,31488.00
2019-05-25T11:54:17.541Z,32192.00
2019-05-25T11:55:17.538Z,32576.00
2019-05-25T11:56:17.543Z,32896.00
2019-05-25T11:57:17.545Z,23072.00
2019-05-25T11:58:17.556Z,20288.00
2019-05-25T11:59:17.605Z,19808.00
2019-05-25T12:00:25.085Z,18152.00
2019-05-25T12:01:17.753Z,16856.00
2019-05-25T12:02:17.556Z,16932.00
2019-05-25T12:03:17.558Z,16776.00
2019-05-25T12:04:17.557Z,15696.00
2019-05-25T12:05:17.558Z,15004.00
2019-05-25T12:06:17.558Z,15592.00
2019-05-25T12:07:17.566Z,15372.00
2019-05-25T12:08:17.562Z,14852.00
2019-05-25T12:09:17.558Z,14740.00
2019-05-25T12:10:17.557Z,15120.00
2019-05-25T12:11:17.555Z,15296.00